Time,TemperatureF,DewpointF,PressureIn,WindDirection,WindDirectionDegrees,WindSpeedMPH,WindSpeedGustMPH,Humidity,HourlyPrecipIn,Conditions,Clouds,dailyrainin,SoftwareType,DateUTC
2013-02-12 00:06:00,36.5,29.0,29.69,WNW,284,7.0,-999.0,73,-99.99,,,0.08,weatherlink.com 1.10,2013-02-12 05:06:00,
2013-02-12 00:21:00,36.4,29.0,29.69,West,278,10.0,-999.0,73,-99.99,,,0.08,weatherlink.com 1.10,2013-02-12 05:21:00,
2013-02-12 00:36:00,36.4,29.0,29.70,WNW,286,8.0,-999.0,73,-99.99,,,0.08,weatherlink.com 1.10,2013-02-12 05:36:00,
2013-02-12 00:51:00,36.4,29.0,29.70,WNW,283,6.0,-999.0,73,-99.99,,,0.08,weatherlink.com 1.10,2013-02-12 05:51:00,
2013-02-12 01:06:00,36.2,28.0,29.70,WSW,254,11.0,-999.0,73,-99.99,,,0.08,weatherlink.com 1.10,2013-02-12 06:06:00,
2013-02-12 01:36:00,36.0,28.0,29.70,West,265,7.0,-999.0,73,-99.99,,,0.08,weatherlink.com 1.10,2013-02-12 06:36:00,
2013-02-12 02:06:00,35.5,28.0,29.71,West,281,11.0,-999.0,75,-99.99,,,0.08,weatherlink.com 1.10,2013-02-12 07:06:00,
2013-02-12 02:21:00,35.4,28.0,29.71,WNW,282,7.0,-999.0,75,-99.99,,,0.08,weatherlink.com 1.10,2013-02-12 07:21:00,
2013-02-12 02:36:00,35.4,28.0,29.71,West,261,16.0,-999.0,75,-99.99,,,0.08,weatherlink.com 1.10,2013-02-12 07:36:00,
2013-02-12 02:51:00,35.0,28.0,29.72,WNW,288,5.0,-999.0,77,-99.99,,,0.08,weatherlink.com 1.10,2013-02-12 07:51:00,
2013-02-12 03:06:00,34.9,29.0,29.72,SSW,201,7.0,-999.0,78,-99.99,,,0.08,weatherlink.com 1.10,2013-02-12 08:06:00,
2013-02-12 03:21:00,34.9,29.0,29.72,West,279,13.0,-999.0,78,-99.99,,,0.08,weatherlink.com 1.10,2013-02-12 08:21:00,
2013-02-12 03:36:00,34.6,29.0,29.73,West,274,15.0,-999.0,80,-99.99,,,0.08,weatherlink.com 1.10,2013-02-12 08:36:00,
2013-02-12 04:06:00,33.7,29.0,29.73,WSW,254,12.0,-999.0,84,-99.99,,,0.08,weatherlink.com 1.10,2013-02-12 09:06:00,
2013-02-12 04:21:00,33.6,29.0,29.73,WNW,302,10.0,-999.0,84,-99.99,,,0.08,weatherlink.com 1.10,2013-02-12 09:21:00,
2013-02-12 04:37:00,33.8,30.0,29.74,WSW,246,15.0,-999.0,84,-99.99,,,0.08,weatherlink.com 1.10,2013-02-12 09:37:00,
2013-02-12 05:07:00,33.3,29.0,29.74,West,273,11.0,-999.0,85,-99.99,,,0.08,weatherlink.com 1.10,2013-02-12 10:07:00,
2013-02-12 05:22:00,33.4,29.0,29.74,WNW,284,12.0,-999.0,85,-99.99,,,0.08,weatherlink.com 1.10,2013-02-12 10:22:00,
2013-02-12 05:37:00,33.5,30.0,29.75,West,277,6.0,-999.0,85,-99.99,,,0.08,weatherlink.com 1.10,2013-02-12 10:37:00,
2013-02-12 06:07:00,33.0,30.0,29.77,West,277,10.0,-999.0,87,-99.99,,,0.08,weatherlink.com 1.10,2013-02-12 11:07:00,
2013-02-12 06:22:00,32.8,30.0,29.77,WNW,296,4.0,-999.0,89,-99.99,,,0.08,weatherlink.com 1.10,2013-02-12 11:22:00,
2013-02-12 06:37:00,32.7,30.0,29.78,West,267,10.0,-999.0,89,-99.99,,,0.08,weatherlink.com 1.10,2013-02-12 11:37:00,
2013-02-12 06:52:00,32.8,30.0,29.79,WNW,300,12.0,-999.0,89,-99.99,,,0.08,weatherlink.com 1.10,2013-02-12 11:52:00,
2013-02-12 07:07:00,33.0,30.0,29.79,WSW,245,11.0,-999.0,87,-99.99,,,0.08,weatherlink.com 1.10,2013-02-12 12:07:00,
2013-02-12 07:22:00,33.3,30.0,29.80,WNW,291,9.0,-999.0,86,-99.99,,,0.08,weatherlink.com 1.10,2013-02-12 12:22:00,
2013-02-12 07:37:00,33.6,29.0,29.80,West,264,19.0,-999.0,84,-99.99,,,0.08,weatherlink.com 1.10,2013-02-12 12:37:00,
2013-02-12 07:52:00,33.8,29.0,29.81,West,268,11.0,-999.0,83,-99.99,,,0.08,weatherlink.com 1.10,2013-02-12 12:52:00,
2013-02-12 08:22:00,34.1,29.0,29.83,West,268,7.0,-999.0,81,-99.99,,,0.08,weatherlink.com 1.10,2013-02-12 13:22:00,
2013-02-12 08:37:00,34.1,29.0,29.83,North,355,11.0,-999.0,81,-99.99,,,0.08,weatherlink.com 1.10,2013-02-12 13:37:00,
2013-02-12 08:52:00,34.1,29.0,29.83,West,274,17.0,-999.0,80,-99.99,,,0.08,weatherlink.com 1.10,2013-02-12 13:52:00,
2013-02-12 09:07:00,34.2,28.0,29.84,West,267,14.0,-999.0,79,-99.99,,,0.08,weatherlink.com 1.10,2013-02-12 14:07:00,
2013-02-12 09:22:00,34.3,28.0,29.84,NW,316,15.0,-999.0,79,-99.99,,,0.08,weatherlink.com 1.10,2013-02-12 14:22:00,
2013-02-12 09:52:00,34.4,28.0,29.86,NW,306,11.0,-999.0,78,-99.99,,,0.08,weatherlink.com 1.10,2013-02-12 14:52:00,
2013-02-12 10:07:00,34.5,28.0,29.86,NNW,334,14.0,-999.0,78,-99.99,,,0.08,weatherlink.com 1.10,2013-02-12 15:07:00,
2013-02-12 10:23:00,34.6,28.0,29.86,WNW,297,11.0,-999.0,78,-99.99,,,0.08,weatherlink.com 1.10,2013-02-12 15:23:00,
2013-02-12 10:38:00,34.6,28.0,29.87,West,274,5.0,-999.0,77,-99.99,,,0.08,weatherlink.com 1.10,2013-02-12 15:38:00,
2013-02-12 10:53:00,34.7,28.0,29.87,West,277,4.0,-999.0,77,-99.99,,,0.08,weatherlink.com 1.10,2013-02-12 15:53:00,
2013-02-12 11:08:00,34.6,28.0,29.88,WNW,298,9.0,-999.0,77,-99.99,,,0.08,weatherlink.com 1.10,2013-02-12 16:08:00,
2013-02-12 11:23:00,34.6,28.0,29.88,WNW,295,6.0,-999.0,76,-99.99,,,0.08,weatherlink.com 1.10,2013-02-12 16:23:00,
2013-02-12 11:38:00,34.7,28.0,29.88,West,268,8.0,-999.0,75,-99.99,,,0.08,weatherlink.com 1.10,2013-02-12 16:38:00,
2013-02-12 12:23:00,35.3,27.0,29.89,NW,304,7.0,-999.0,71,-99.99,,,0.08,weatherlink.com 1.10,2013-02-12 17:23:00,
2013-02-12 12:38:00,35.3,27.0,29.89,WNW,296,6.0,-999.0,71,-99.99,,,0.08,weatherlink.com 1.10,2013-02-12 17:38:00,
2013-02-12 12:53:00,35.3,26.0,29.88,WNW,295,9.0,-999.0,70,-99.99,,,0.08,weatherlink.com 1.10,2013-02-12 17:53:00,
2013-02-12 13:08:00,35.0,26.0,29.89,WNW,289,5.0,-999.0,70,-99.99,,,0.08,weatherlink.com 1.10,2013-02-12 18:08:00,
2013-02-12 13:23:00,34.9,26.0,29.89,WNW,301,7.0,-999.0,71,-99.99,,,0.08,weatherlink.com 1.10,2013-02-12 18:23:00,
2013-02-12 13:38:00,35.1,26.0,29.89,East,80,6.0,-999.0,70,-99.99,,,0.08,weatherlink.com 1.10,2013-02-12 18:38:00,
2013-02-12 13:53:00,35.5,26.0,29.88,West,278,9.0,-999.0,68,-99.99,,,0.08,weatherlink.com 1.10,2013-02-12 18:53:00,
2013-02-12 14:08:00,35.3,25.0,29.88,West,279,7.0,-999.0,67,-99.99,,,0.00,weatherlink.com 1.10,2013-02-12 19:08:00,
2013-02-12 14:38:00,34.6,25.0,29.86,NNW,344,3.0,-999.0,68,-99.99,,,0.00,weatherlink.com 1.10,2013-02-12 19:38:00,
2013-02-12 15:08:00,34.5,25.0,29.88,WNW,298,8.0,-999.0,68,-99.99,,,0.00,weatherlink.com 1.10,2013-02-12 20:08:00,
2013-02-12 15:23:00,34.2,25.0,29.87,NNE,26,3.0,-999.0,70,-99.99,,,0.00,weatherlink.com 1.10,2013-02-12 20:23:00,
2013-02-12 15:38:00,34.2,25.0,29.87,North,355,0.0,-999.0,70,-99.99,,,0.00,weatherlink.com 1.10,2013-02-12 20:38:00,
2013-02-12 15:53:00,33.9,26.0,29.86,SW,231,3.0,-999.0,72,-99.99,,,0.00,weatherlink.com 1.10,2013-02-12 20:53:00,
2013-02-12 16:08:00,33.7,26.0,29.86,NNE,27,3.0,-999.0,73,-99.99,,,0.00,weatherlink.com 1.10,2013-02-12 21:08:00,
2013-02-12 16:23:00,33.3,26.0,29.86,West,276,0.0,-999.0,75,-99.99,,,0.00,weatherlink.com 1.10,2013-02-12 21:23:00,
2013-02-12 16:38:00,33.1,26.0,29.85,WNW,296,4.0,-999.0,74,-99.99,,,0.00,weatherlink.com 1.10,2013-02-12 21:38:00,
2013-02-12 16:53:00,33.2,25.0,29.87,NW,304,7.0,-999.0,73,-99.99,,,0.00,weatherlink.com 1.10,2013-02-12 21:53:00,
2013-02-12 17:08:00,33.0,26.0,29.87,NW,316,2.0,-999.0,74,-99.99,,,0.00,weatherlink.com 1.10,2013-02-12 22:08:00,
2013-02-12 17:24:00,32.8,26.0,29.88,NNW,334,6.0,-999.0,75,-99.99,,,0.00,weatherlink.com 1.10,2013-02-12 22:24:00,
2013-02-12 17:39:00,32.5,26.0,29.89,West,281,5.0,-999.0,76,-99.99,,,0.00,weatherlink.com 1.10,2013-02-12 22:39:00,
2013-02-12 17:54:00,32.1,26.0,29.90,NNW,339,5.0,-999.0,79,-99.99,,,0.00,weatherlink.com 1.10,2013-02-12 22:54:00,
2013-02-12 18:24:00,31.8,26.0,29.92,NW,307,5.0,-999.0,79,-99.99,,,0.00,weatherlink.com 1.10,2013-02-12 23:24:00,
2013-02-12 18:54:00,31.7,26.0,29.93,West,278,4.0,-999.0,80,-99.99,,,0.00,weatherlink.com 1.10,2013-02-12 23:54:00,
2013-02-12 19:09:00,31.5,26.0,29.93,WNW,292,2.0,-999.0,80,-99.99,,,0.00,weatherlink.com 1.10,2013-02-13 00:09:00,
2013-02-12 19:24:00,31.6,26.0,29.94,West,266,5.0,-999.0,79,-99.99,,,0.00,weatherlink.com 1.10,2013-02-13 00:24:00,
2013-02-12 19:39:00,31.7,26.0,29.94,West,261,4.0,-999.0,78,-99.99,,,0.00,weatherlink.com 1.10,2013-02-13 00:39:00,
2013-02-12 20:24:00,32.0,25.0,29.94,West,281,8.0,-999.0,76,-99.99,,,0.00,weatherlink.com 1.10,2013-02-13 01:24:00,
2013-02-12 20:39:00,31.9,25.0,29.94,West,265,2.0,-999.0,77,-99.99,,,0.00,weatherlink.com 1.10,2013-02-13 01:39:00,
2013-02-12 20:54:00,31.8,25.0,29.94,WNW,298,2.0,-999.0,77,-99.99,,,0.00,weatherlink.com 1.10,2013-02-13 01:54:00,
2013-02-12 21:09:00,31.7,25.0,29.93,WNW,295,3.0,-999.0,77,-99.99,,,0.00,weatherlink.com 1.10,2013-02-13 02:09:00,
2013-02-12 21:24:00,31.7,26.0,29.93,WNW,285,1.0,-999.0,78,-99.99,,,0.00,weatherlink.com 1.10,2013-02-13 02:24:00,
2013-02-12 21:39:00,31.7,25.0,29.93,WNW,297,2.0,-999.0,77,-99.99,,,0.00,weatherlink.com 1.10,2013-02-13 02:39:00,
2013-02-12 21:54:00,31.7,25.0,29.92,WNW,302,4.0,-999.0,77,-99.99,,,0.00,weatherlink.com 1.10,2013-02-13 02:54:00,
2013-02-12 22:09:00,31.7,26.0,29.92,West,280,4.0,-999.0,78,-99.99,,,0.00,weatherlink.com 1.10,2013-02-13 03:09:00,
2013-02-12 22:24:00,31.6,25.0,29.91,West,267,3.0,-999.0,78,-99.99,,,0.00,weatherlink.com 1.10,2013-02-13 03:24:00,
2013-02-12 22:39:00,31.6,25.0,29.91,West,269,5.0,-999.0,78,-99.99,,,0.00,weatherlink.com 1.10,2013-02-13 03:39:00,
2013-02-12 22:54:00,31.5,25.0,29.90,West,274,2.0,-999.0,78,-99.99,,,0.00,weatherlink.com 1.10,2013-02-13 03:54:00,
2013-02-12 23:09:00,31.4,26.0,29.89,West,269,4.0,-999.0,79,-99.99,,,0.00,weatherlink.com 1.10,2013-02-13 04:09:00,
2013-02-12 23:24:00,31.4,26.0,29.90,West,279,3.0,-999.0,79,-99.99,,,0.00,weatherlink.com 1.10,2013-02-13 04:24:00,
2013-02-12 23:39:00,31.4,25.0,29.90,WNW,297,5.0,-999.0,78,-99.99,,,0.00,weatherlink.com 1.10,2013-02-13 04:39:00,
2013-02-12 23:54:00,31.4,25.0,29.90,WNW,285,1.0,-999.0,78,-99.99,,,0.00,weatherlink.com 1.10,2013-02-13 04:54:00,